Time;durP1;ratioP1;P1;durP2;ratioP2;P2;SDS_P1;SDS_P2;PMS_P1;PMS_P2;Temp;Humidity;BMP_temperature;BMP_pressure;BME280_temperature;BME280_humidity;BME280_pressure;Samples;Min_cycle;Max_cycle;Signal;HPM_P1;HPM_P2
2023/05/30 00:01:43;;;;;;;3.30;1.70;;;21.80;55.40;;;;;;5054129;28;20200;-44
2023/05/30 00:04:16;;;;;;;2.30;1.40;;;21.80;55.60;;;;;;5034126;28;20673;-43
2023/05/30 00:06:44;;;;;;;3.70;1.50;;;21.80;55.20;;;;;;5063671;28;20217;-44
2023/05/30 00:09:16;;;;;;;3.33;1.33;;;21.80;55.40;;;;;;5058960;28;20197;-43
2023/05/30 00:11:49;;;;;;;3.97;1.83;;;21.80;55.40;;;;;;5062857;28;20198;-44
2023/05/30 00:14:21;;;;;;;3.43;1.37;;;21.80;55.40;;;;;;5068467;28;20190;-43
2023/05/30 00:16:51;;;;;;;4.23;1.70;;;21.80;55.40;;;;;;5051384;28;20216;-43
2023/05/30 00:19:24;;;;;;;3.80;1.40;;;21.80;55.40;;;;;;5058861;28;20587;-43
2023/05/30 00:21:58;;;;;;;1.97;1.23;;;21.70;55.20;;;;;;5071902;28;20646;-43
2023/05/30 00:24:28;;;;;;;4.53;1.57;;;21.70;55.30;;;;;;5056486;28;20208;-44
2023/05/30 00:27:00;;;;;;;3.63;1.63;;;21.70;55.30;;;;;;5054721;28;20186;-44
2023/05/30 00:29:31;;;;;;;2.67;1.30;;;21.70;55.30;;;;;;5060343;28;20213;-43
2023/05/30 00:32:01;;;;;;;3.00;1.40;;;21.70;55.30;;;;;;5066738;28;20547;-43
2023/05/30 00:34:32;;;;;;;2.47;1.40;;;21.60;55.20;;;;;;5055864;28;20202;-43
2023/05/30 00:37:05;;;;;;;4.67;1.93;;;21.70;55.30;;;;;;5052102;28;20272;-43
2023/05/30 00:39:35;;;;;;;2.40;1.20;;;21.60;55.10;;;;;;5066184;28;20231;-44
2023/05/30 00:42:20;;;;;;;4.13;1.40;;;21.60;55.20;;;;;;5066162;28;20663;-44
2023/05/30 00:44:50;;;;;;;4.33;1.73;;;21.60;55.20;;;;;;5069814;28;20825;-43
2023/05/30 00:47:20;;;;;;;4.13;1.40;;;21.60;55.70;;;;;;5070805;28;20196;-43
2023/05/30 00:49:47;;;;;;;4.63;1.70;;;21.60;55.10;;;;;;5069088;28;20720;-43
2023/05/30 00:52:19;;;;;;;2.20;1.27;;;21.60;55.00;;;;;;5049423;28;20202;-43
2023/05/30 00:54:50;;;;;;;4.43;1.57;;;21.60;54.90;;;;;;5065190;28;20197;-43
2023/05/30 00:57:20;;;;;;;2.50;1.57;;;21.60;55.00;;;;;;5058050;28;20218;-43
2023/05/30 00:59:52;;;;;;;5.07;1.70;;;21.60;54.90;;;;;;5073536;28;20194;-43
2023/05/30 01:02:23;;;;;;;2.83;1.60;;;21.60;54.90;;;;;;5050247;28;20213;-44
2023/05/30 01:04:52;;;;;;;3.63;1.50;;;21.60;54.90;;;;;;5065629;28;20238;-43
2023/05/30 01:07:20;;;;;;;4.30;1.80;;;21.50;54.90;;;;;;5069562;28;20634;-44
2023/05/30 01:09:52;;;;;;;4.83;1.63;;;21.50;54.80;;;;;;5053439;28;20197;-43
2023/05/30 01:12:36;;;;;;;2.90;1.53;;;21.50;54.80;;;;;;5053357;28;20228;-46
2023/05/30 01:15:11;;;;;;;4.47;1.63;;;21.50;54.80;;;;;;5078005;28;20208;-43
2023/05/30 01:18:17;;;;;;;2.73;1.40;;;21.50;54.80;;;;;;5059342;28;20213;-43
2023/05/30 01:20:50;;;;;;;2.53;1.20;;;21.50;54.70;;;;;;5068741;28;20190;-43
2023/05/30 01:23:44;;;;;;;3.30;1.50;;;21.50;54.70;;;;;;5052322;28;20259;-44
2023/05/30 01:26:41;;;;;;;4.93;1.67;;;21.50;54.60;;;;;;5054224;28;20271;-43
2023/05/30 01:29:20;;;;;;;2.13;1.20;;;21.50;54.70;;;;;;5060562;28;20205;-44
2023/05/30 01:31:54;;;;;;;3.53;1.20;;;21.50;54.60;;;;;;5059166;28;20206;-44
2023/05/30 01:34:25;;;;;;;2.63;1.27;;;21.50;54.50;;;;;;5060356;28;20256;-43
2023/05/30 01:36:57;;;;;;;3.20;1.43;;;21.40;54.50;;;;;;5053353;28;20825;-43
2023/05/30 01:39:26;;;;;;;3.17;1.60;;;21.50;54.50;;;;;;5069936;28;20287;-43
2023/05/30 01:42:23;;;;;;;4.53;1.77;;;21.40;54.50;;;;;;5060008;28;20201;-44
2023/05/30 01:45:08;;;;;;;3.83;1.60;;;21.40;54.40;;;;;;5060536;28;20510;-45
2023/05/30 01:47:51;;;;;;;3.67;1.50;;;21.40;54.40;;;;;;5061659;28;20203;-43
2023/05/30 01:50:41;;;;;;;3.87;1.73;;;21.30;54.40;;;;;;5047743;28;20214;-43
2023/05/30 01:53:16;;;;;;;3.60;1.60;;;21.40;54.40;;;;;;5040225;28;20728;-43
2023/05/30 01:55:51;;;;;;;3.07;1.60;;;21.40;54.40;;;;;;5064783;28;20239;-43
2023/05/30 01:58:20;;;;;;;2.17;1.30;;;21.40;54.40;;;;;;5038005;28;20211;-44
2023/05/30 02:00:53;;;;;;;4.17;1.50;;;21.30;54.30;;;;;;5044430;28;20599;-43
2023/05/30 02:03:24;;;;;;;3.67;1.40;;;21.30;54.30;;;;;;5068304;28;20641;-43
2023/05/30 02:05:55;;;;;;;5.47;1.60;;;21.30;54.20;;;;;;5047664;28;20222;-43
2023/05/30 02:08:25;;;;;;;2.33;1.50;;;21.30;54.20;;;;;;5047830;28;20274;-44
2023/05/30 02:10:54;;;;;;;2.57;1.50;;;21.30;54.20;;;;;;5052029;28;20225;-46
2023/05/30 02:13:24;;;;;;;3.17;1.50;;;21.30;54.70;;;;;;5070125;28;20213;-43
2023/05/30 02:15:59;;;;;;;3.00;1.33;;;21.30;54.20;;;;;;5048696;28;20255;-43
2023/05/30 02:18:27;;;;;;;4.27;1.37;;;21.30;54.10;;;;;;5064089;28;20209;-44
2023/05/30 02:20:57;;;;;;;4.87;1.73;;;21.30;54.10;;;;;;5069495;28;20198;-45
2023/05/30 02:23:28;;;;;;;4.77;1.73;;;21.30;54.10;;;;;;5069477;28;20193;-43
2023/05/30 02:25:58;;;;;;;4.10;1.90;;;21.30;54.10;;;;;;5066111;28;20271;-44
2023/05/30 02:28:27;;;;;;;3.27;1.50;;;21.30;54.10;;;;;;5059378;28;20388;-43
2023/05/30 02:30:59;;;;;;;3.27;1.40;;;21.30;54.10;;;;;;5056984;28;20553;-43
2023/05/30 02:33:30;;;;;;;2.80;1.27;;;21.20;54.00;;;;;;5039736;28;20585;-46
2023/05/30 02:36:01;;;;;;;2.97;1.30;;;21.20;54.00;;;;;;5056422;28;20280;-43
2023/05/30 02:38:32;;;;;;;2.83;1.40;;;21.20;53.90;;;;;;5064608;28;20638;-44
2023/05/30 02:41:04;;;;;;;3.87;1.57;;;21.20;54.00;;;;;;5061890;28;20225;-43
2023/05/30 02:43:40;;;;;;;4.70;1.40;;;21.20;53.90;;;;;;5068566;28;20730;-43
2023/05/30 02:46:17;;;;;;;5.20;1.50;;;21.20;53.90;;;;;;5065881;28;20702;-43
2023/05/30 02:48:48;;;;;;;2.13;1.37;;;21.20;54.00;;;;;;5068897;28;20178;-44
2023/05/30 02:51:20;;;;;;;2.80;1.77;;;21.20;53.90;;;;;;5056797;28;20208;-44
2023/05/30 02:53:57;;;;;;;2.73;1.30;;;21.20;53.90;;;;;;5066281;28;20224;-43
2023/05/30 02:56:30;;;;;;;3.90;1.37;;;21.20;53.90;;;;;;5066515;28;20673;-43
2023/05/30 02:59:03;;;;;;;3.57;1.40;;;21.10;53.80;;;;;;5050682;28;20215;-44
2023/05/30 03:01:36;;;;;;;3.87;1.70;;;21.20;53.80;;;;;;5060992;28;20239;-43
2023/05/30 03:04:08;;;;;;;3.47;1.27;;;21.20;53.80;;;;;;5078448;28;20197;-43
2023/05/30 03:06:37;;;;;;;2.90;1.30;;;21.10;53.70;;;;;;5068371;28;20228;-43
2023/05/30 03:09:11;;;;;;;3.23;1.20;;;21.10;53.70;;;;;;5061510;28;20194;-44
2023/05/30 03:11:42;;;;;;;4.00;1.57;;;21.10;53.70;;;;;;5071622;28;20564;-43
2023/05/30 03:14:13;;;;;;;4.93;1.67;;;21.10;53.70;;;;;;5067154;28;20214;-43
2023/05/30 03:16:40;;;;;;;3.73;1.67;;;21.10;53.60;;;;;;5071847;28;20212;-43
2023/05/30 03:19:12;;;;;;;3.40;1.43;;;21.10;53.60;;;;;;5073959;28;20189;-43
2023/05/30 03:21:45;;;;;;;2.80;1.13;;;21.10;53.60;;;;;;5077974;28;20190;-43
2023/05/30 03:24:15;;;;;;;3.13;1.20;;;21.10;53.60;;;;;;5077785;28;20194;-43
2023/05/30 03:26:47;;;;;;;5.13;1.90;;;21.00;53.50;;;;;;5071369;28;20226;-43
2023/05/30 03:29:16;;;;;;;3.13;1.50;;;21.00;53.50;;;;;;5064855;28;20216;-43
2023/05/30 03:31:49;;;;;;;2.83;1.23;;;21.10;53.50;;;;;;5072165;28;20259;-43
2023/05/30 03:34:21;;;;;;;3.97;1.53;;;21.10;53.50;;;;;;5058473;28;20198;-44
2023/05/30 03:36:53;;;;;;;3.37;1.50;;;21.00;53.40;;;;;;5072256;28;20221;-44
2023/05/30 03:39:25;;;;;;;2.87;1.37;;;21.00;53.30;;;;;;5070603;28;20302;-43
2023/05/30 03:42:08;;;;;;;2.90;1.50;;;21.00;53.30;;;;;;5055404;28;20296;-44
2023/05/30 03:44:39;;;;;;;3.10;1.40;;;21.00;53.30;;;;;;5056195;28;20202;-43
2023/05/30 03:47:08;;;;;;;3.20;1.30;;;21.00;53.20;;;;;;5043085;28;20214;-43
2023/05/30 03:49:37;;;;;;;3.27;1.40;;;21.00;53.20;;;;;;5056111;28;20190;-43
2023/05/30 03:52:08;;;;;;;3.43;1.47;;;21.00;53.30;;;;;;5049506;28;20207;-43
2023/05/30 03:54:35;;;;;;;3.63;1.60;;;21.00;53.20;;;;;;5070822;28;20214;-43
2023/05/30 03:57:07;;;;;;;3.90;1.57;;;21.00;53.20;;;;;;5044520;28;20209;-44
2023/05/30 03:59:39;;;;;;;2.73;1.40;;;21.00;53.20;;;;;;5052428;28;20652;-44
2023/05/30 04:02:09;;;;;;;2.53;1.30;;;21.00;53.20;;;;;;5068073;28;20195;-45
2023/05/30 04:04:42;;;;;;;3.40;1.20;;;21.00;53.20;;;;;;5060549;28;20213;-43
2023/05/30 04:07:15;;;;;;;4.90;1.70;;;21.00;53.20;;;;;;5071814;28;20214;-43
2023/05/30 04:09:46;;;;;;;2.37;1.30;;;21.00;53.20;;;;;;5073918;28;20599;-45
2023/05/30 04:12:17;;;;;;;4.83;1.60;;;21.00;53.20;;;;;;5070874;28;20280;-44
2023/05/30 04:14:47;;;;;;;2.40;1.23;;;20.90;53.10;;;;;;5054330;28;20210;-43
2023/05/30 04:17:16;;;;;;;4.50;1.60;;;20.90;53.10;;;;;;5070879;28;20210;-44
2023/05/30 04:19:47;;;;;;;4.73;1.50;;;20.90;53.10;;;;;;5078430;28;20293;-44
2023/05/30 04:22:16;;;;;;;2.83;1.40;;;20.90;53.10;;;;;;5066347;28;20198;-43
2023/05/30 04:25:00;;;;;;;4.80;1.60;;;20.90;53.10;;;;;;5055275;28;20202;-43
2023/05/30 04:27:29;;;;;;;4.30;1.60;;;20.90;53.00;;;;;;5072088;28;20202;-43
2023/05/30 04:30:03;;;;;;;3.67;1.33;;;20.90;53.00;;;;;;5067305;28;20220;-43
2023/05/30 04:32:36;;;;;;;4.70;1.57;;;20.90;53.00;;;;;;5050098;28;20316;-44
2023/05/30 04:35:07;;;;;;;4.80;1.53;;;20.90;53.00;;;;;;5053352;28;20236;-45
2023/05/30 04:37:44;;;;;;;3.33;1.43;;;20.90;53.00;;;;;;5042158;28;20190;-44
2023/05/30 04:40:19;;;;;;;6.03;1.50;;;20.90;53.00;;;;;;5053336;28;20589;-42
2023/05/30 04:42:51;;;;;;;2.10;1.57;;;20.90;53.00;;;;;;5071373;28;20224;-44
2023/05/30 04:45:19;;;;;;;4.23;1.50;;;20.90;53.00;;;;;;5071203;28;20201;-43
2023/05/30 04:47:51;;;;;;;4.07;1.50;;;20.90;53.00;;;;;;5054148;28;20647;-43
2023/05/30 04:50:24;;;;;;;3.33;1.40;;;20.90;53.00;;;;;;5069506;28;20194;-44
2023/05/30 04:52:59;;;;;;;3.70;1.70;;;20.90;53.00;;;;;;5048726;28;20229;-43
2023/05/30 04:55:28;;;;;;;3.87;1.90;;;20.90;53.00;;;;;;5057889;28;20260;-44
2023/05/30 04:57:56;;;;;;;3.13;1.60;;;20.80;52.90;;;;;;5070989;28;20205;-45
2023/05/30 05:00:28;;;;;;;3.33;1.37;;;20.90;53.00;;;;;;5068382;28;20208;-43
2023/05/30 05:02:59;;;;;;;7.10;1.67;;;20.90;53.00;;;;;;5071001;28;20201;-44
2023/05/30 05:05:31;;;;;;;3.33;1.60;;;20.90;52.90;;;;;;5053261;28;20230;-44
2023/05/30 05:08:00;;;;;;;4.13;1.73;;;20.90;53.00;;;;;;5036630;28;20221;-42
2023/05/30 05:10:31;;;;;;;3.90;1.60;;;20.90;53.00;;;;;;5033978;28;20654;-43
2023/05/30 05:13:02;;;;;;;2.03;1.50;;;20.80;52.90;;;;;;5057963;28;20264;-43
2023/05/30 05:15:33;;;;;;;3.67;1.50;;;20.90;53.00;;;;;;5063608;28;20620;-43
2023/05/30 05:18:04;;;;;;;2.70;1.50;;;20.80;52.90;;;;;;5061836;28;20213;-44
2023/05/30 05:20:34;;;;;;;3.80;1.30;;;20.80;53.00;;;;;;5068719;28;20205;-43
2023/05/30 05:23:16;;;;;;;3.40;1.30;;;20.80;52.90;;;;;;5070051;28;20292;-44
2023/05/30 05:25:47;;;;;;;4.43;1.60;;;20.80;53.00;;;;;;5068888;28;20586;-44
2023/05/30 05:28:17;;;;;;;4.10;1.50;;;20.80;52.90;;;;;;5064571;28;20197;-43
2023/05/30 05:30:48;;;;;;;3.93;1.43;;;20.80;53.00;;;;;;5062669;28;20210;-43
2023/05/30 05:33:19;;;;;;;3.30;1.50;;;20.80;54.90;;;;;;5058772;28;20268;-44
2023/05/30 05:35:50;;;;;;;3.40;1.60;;;20.90;55.10;;;;;;5067292;28;20271;-44
2023/05/30 05:38:21;;;;;;;4.33;1.63;;;20.80;52.80;;;;;;5061089;28;20541;-45
2023/05/30 05:40:52;;;;;;;2.80;1.57;;;20.80;52.80;;;;;;5049357;28;20216;-44
2023/05/30 05:43:19;;;;;;;4.10;1.73;;;20.80;52.80;;;;;;5050506;28;20604;-43
2023/05/30 05:45:51;;;;;;;3.13;1.47;;;20.80;52.80;;;;;;5061051;28;20639;-44
2023/05/30 05:48:19;;;;;;;4.20;1.70;;;20.80;52.80;;;;;;5053957;28;20205;-43
2023/05/30 05:50:50;;;;;;;3.83;1.70;;;20.80;52.80;;;;;;5051133;28;20559;-43
2023/05/30 05:53:20;;;;;;;4.97;1.90;;;20.80;52.60;;;;;;5058478;28;20228;-43
2023/05/30 05:56:03;;;;;;;10.70;2.00;;;20.80;52.60;;;;;;5069984;28;20193;-44
2023/05/30 05:58:32;;;;;;;6.73;1.83;;;20.80;52.60;;;;;;5066302;28;20243;-44
2023/05/30 06:01:09;;;;;;;3.37;1.50;;;20.80;52.60;;;;;;5060377;28;20243;-43
2023/05/30 06:03:39;;;;;;;3.83;1.87;;;20.80;52.60;;;;;;5068789;28;20220;-44
2023/05/30 06:06:08;;;;;;;6.37;1.87;;;20.80;52.50;;;;;;5069519;28;20221;-43
2023/05/30 06:08:37;;;;;;;2.97;1.77;;;20.80;52.50;;;;;;5077904;28;20198;-44
2023/05/30 06:11:07;;;;;;;4.00;1.70;;;20.80;52.50;;;;;;5037210;28;20212;-44
2023/05/30 06:13:38;;;;;;;6.53;1.83;;;20.80;52.50;;;;;;5070381;28;20198;-43
2023/05/30 06:16:06;;;;;;;3.70;1.77;;;20.80;52.50;;;;;;5051249;28;20201;-44
2023/05/30 06:18:39;;;;;;;4.60;1.90;;;20.80;52.50;;;;;;5060501;28;20209;-45
2023/05/30 06:21:10;;;;;;;4.83;1.70;;;20.80;52.40;;;;;;5046593;28;20191;-44
2023/05/30 06:23:38;;;;;;;7.03;1.87;;;20.80;52.40;;;;;;5077408;28;20197;-44
2023/05/30 06:26:06;;;;;;;5.13;2.10;;;20.80;52.40;;;;;;5071617;28;20209;-43
2023/05/30 06:28:33;;;;;;;3.13;1.90;;;20.80;52.40;;;;;;5026420;28;20234;-45
2023/05/30 06:31:04;;;;;;;4.07;1.60;;;20.80;52.40;;;;;;5060517;28;20241;-43
2023/05/30 06:33:34;;;;;;;5.33;1.67;;;20.80;52.30;;;;;;5050178;28;20232;-43
2023/05/30 06:36:06;;;;;;;4.03;1.73;;;20.80;52.40;;;;;;5049301;28;20245;-45
2023/05/30 06:38:37;;;;;;;4.83;2.00;;;20.80;52.30;;;;;;5059283;28;20272;-43
2023/05/30 06:41:06;;;;;;;3.77;1.60;;;20.80;52.30;;;;;;5056972;28;20263;-44
2023/05/30 06:43:35;;;;;;;3.87;2.17;;;20.80;52.40;;;;;;5031113;28;20229;-45
2023/05/30 06:46:04;;;;;;;4.87;2.07;;;20.80;52.30;;;;;;5048924;28;21339;-43
2023/05/30 06:48:36;;;;;;;3.60;1.90;;;20.80;52.30;;;;;;5047718;28;20202;-43
2023/05/30 06:51:07;;;;;;;6.27;1.97;;;20.80;52.30;;;;;;5060297;28;20197;-43
2023/05/30 06:53:40;;;;;;;7.10;1.90;;;20.80;52.30;;;;;;5046719;28;20225;-43
2023/05/30 06:56:15;;;;;;;4.30;2.00;;;20.90;52.30;;;;;;5058739;28;20193;-44
2023/05/30 06:58:46;;;;;;;3.67;2.07;;;20.90;52.30;;;;;;5061142;28;20186;-45
2023/05/30 07:01:18;;;;;;;5.40;1.73;;;20.80;52.80;;;;;;5064958;28;20581;-43
2023/05/30 07:03:50;;;;;;;3.60;1.80;;;20.90;52.20;;;;;;5063539;28;20178;-43
2023/05/30 07:06:19;;;;;;;5.33;1.97;;;20.90;52.10;;;;;;5051947;28;20296;-46
2023/05/30 07:08:50;;;;;;;5.33;2.27;;;20.90;52.00;;;;;;5050497;28;20198;-44
2023/05/30 07:11:22;;;;;;;4.23;2.10;;;20.90;52.00;;;;;;5046411;28;20186;-44
2023/05/30 07:13:52;;;;;;;2.87;1.90;;;20.90;52.00;;;;;;5051671;28;20222;-44
2023/05/30 07:16:23;;;;;;;3.63;1.80;;;20.90;52.10;;;;;;5061216;28;20232;-43
2023/05/30 07:18:54;;;;;;;5.03;2.30;;;20.90;51.90;;;;;;5052023;28;20190;-43
2023/05/30 07:21:40;;;;;;;5.60;2.30;;;20.90;52.00;;;;;;5066237;28;20615;-43
2023/05/30 07:24:11;;;;;;;5.67;2.20;;;20.90;51.90;;;;;;5051964;28;20190;-44
2023/05/30 07:26:41;;;;;;;5.30;1.90;;;20.90;52.00;;;;;;5065814;28;20218;-43
2023/05/30 07:29:12;;;;;;;4.40;2.20;;;20.90;52.00;;;;;;5058646;28;20206;-43
2023/05/30 07:31:41;;;;;;;4.67;1.90;;;20.90;51.90;;;;;;5048595;28;20802;-45
2023/05/30 07:34:12;;;;;;;5.77;2.27;;;20.90;51.90;;;;;;5063781;28;20212;-45
2023/05/30 07:36:42;;;;;;;4.30;2.10;;;20.90;52.00;;;;;;5065168;28;20206;-43
2023/05/30 07:39:12;;;;;;;5.63;2.27;;;20.90;51.70;;;;;;5059502;28;20314;-44
2023/05/30 07:41:45;;;;;;;6.63;2.47;;;20.90;51.90;;;;;;5048627;28;20216;-44
2023/05/30 07:44:16;;;;;;;3.63;2.00;;;20.90;51.90;;;;;;5062117;28;20197;-43
2023/05/30 07:46:43;;;;;;;4.53;1.97;;;20.90;52.00;;;;;;5052878;28;20250;-45
2023/05/30 07:49:13;;;;;;;4.73;1.80;;;20.90;52.00;;;;;;5054446;28;20797;-43
2023/05/30 07:51:57;;;;;;;4.30;2.20;;;20.90;52.00;;;;;;5062139;28;20247;-44
2023/05/30 07:54:29;;;;;;;4.30;2.30;;;20.90;51.90;;;;;;5063660;28;20206;-44
2023/05/30 07:57:01;;;;;;;6.53;2.90;;;21.00;52.00;;;;;;5064816;28;20259;-43
2023/05/30 07:59:33;;;;;;;6.30;2.73;;;21.00;52.10;;;;;;5061376;28;20213;-43
2023/05/30 08:02:05;;;;;;;5.20;2.87;;;21.00;52.00;;;;;;5069108;28;20245;-44
2023/05/30 08:04:36;;;;;;;4.77;2.50;;;21.00;52.10;;;;;;5065114;28;20276;-44
2023/05/30 08:07:09;;;;;;;5.03;2.53;;;21.00;52.20;;;;;;5059183;28;20222;-43
2023/05/30 08:09:39;;;;;;;4.80;2.80;;;21.00;52.30;;;;;;5063609;28;20221;-44
2023/05/30 08:12:17;;;;;;;8.30;2.70;;;21.00;52.40;;;;;;5052377;28;20263;-44
2023/05/30 08:14:50;;;;;;;11.50;2.80;;;21.00;52.50;;;;;;5052824;28;20208;-44
2023/05/30 08:17:21;;;;;;;9.73;3.27;;;21.00;52.80;;;;;;5059500;28;20225;-44
2023/05/30 08:19:55;;;;;;;3.70;2.27;;;21.00;53.30;;;;;;5059574;28;20205;-44
2023/05/30 08:22:24;;;;;;;4.83;2.40;;;21.10;53.90;;;;;;5048855;28;20213;-43
2023/05/30 08:24:59;;;;;;;4.10;2.30;;;21.10;54.00;;;;;;5067969;28;20786;-44
2023/05/30 08:27:31;;;;;;;8.70;2.80;;;21.10;54.40;;;;;;5050558;28;20669;-44
2023/05/30 08:30:10;;;;;;;4.17;2.40;;;21.20;54.50;;;;;;5052760;28;20519;-44
2023/05/30 08:32:53;;;;;;;4.97;2.33;;;21.20;54.90;;;;;;5053372;28;20276;-44
2023/05/30 08:35:25;;;;;;;5.33;2.43;;;21.30;55.10;;;;;;5056586;28;20192;-43
2023/05/30 08:37:57;;;;;;;6.17;2.33;;;21.30;55.40;;;;;;5065217;28;20193;-43
2023/05/30 08:40:27;;;;;;;3.40;2.10;;;21.30;55.50;;;;;;5049273;28;20211;-43
2023/05/30 08:42:59;;;;;;;4.87;2.20;;;21.40;55.90;;;;;;5063244;28;20214;-44
2023/05/30 08:45:30;;;;;;;6.80;2.40;;;21.40;56.00;;;;;;5070804;28;20194;-44
2023/05/30 08:48:03;;;;;;;5.83;1.93;;;21.40;56.10;;;;;;5065761;28;20217;-44
2023/05/30 08:50:43;;;;;;;6.83;2.77;;;21.40;56.20;;;;;;5049990;28;20493;-43
2023/05/30 08:53:30;;;;;;;7.30;2.77;;;21.50;56.30;;;;;;5070385;28;20214;-44
2023/05/30 08:56:11;;;;;;;9.20;2.67;;;21.50;56.40;;;;;;5060320;28;20752;-43
2023/05/30 08:58:50;;;;;;;6.27;2.50;;;21.60;56.70;;;;;;5064218;28;20190;-44
2023/05/30 09:01:22;;;;;;;6.20;2.70;;;21.50;57.00;;;;;;5059748;28;20730;-44
2023/05/30 09:03:54;;;;;;;8.73;3.23;;;21.60;56.90;;;;;;5058732;28;20251;-44
2023/05/30 09:06:27;;;;;;;8.80;3.00;;;21.60;57.10;;;;;;5011784;28;20214;-44
2023/05/30 09:08:59;;;;;;;10.93;3.70;;;21.70;57.00;;;;;;5061606;28;20538;-44
2023/05/30 09:11:33;;;;;;;7.57;3.77;;;21.70;57.10;;;;;;5030898;28;20588;-44
2023/05/30 09:14:11;;;;;;;11.30;3.73;;;21.70;57.10;;;;;;5062391;28;20525;-44
2023/05/30 09:16:38;;;;;;;13.53;4.23;;;21.70;57.10;;;;;;5056013;28;20221;-44
2023/05/30 09:19:21;;;;;;;12.27;4.77;;;21.80;57.50;;;;;;5062060;28;20679;-43
2023/05/30 09:21:52;;;;;;;12.20;5.73;;;21.80;57.50;;;;;;5048370;28;20198;-43
2023/05/30 09:25:15;;;;;;;18.17;5.40;;;21.80;57.00;;;;;;5060618;28;20185;-43
2023/05/30 09:27:54;;;;;;;16.57;6.43;;;21.80;56.90;;;;;;5059192;28;20218;-44
2023/05/30 09:30:25;;;;;;;19.53;7.07;;;21.90;57.20;;;;;;5050196;28;20206;-45
2023/05/30 09:33:03;;;;;;;18.40;6.33;;;21.90;56.90;;;;;;5066742;28;20760;-44
2023/05/30 09:35:34;;;;;;;17.53;6.43;;;21.90;56.70;;;;;;5046094;28;20206;-43
2023/05/30 09:38:07;;;;;;;15.17;6.27;;;21.90;56.40;;;;;;5062390;28;20213;-43
2023/05/30 09:40:37;;;;;;;18.73;5.83;;;21.90;56.40;;;;;;5047531;28;20213;-44
2023/05/30 09:43:07;;;;;;;12.10;4.90;;;21.90;56.20;;;;;;5063453;28;20209;-44
2023/05/30 09:45:37;;;;;;;12.83;5.50;;;22.00;56.20;;;;;;5060267;28;20221;-44
2023/05/30 09:48:07;;;;;;;11.17;5.03;;;22.00;55.80;;;;;;5066760;28;20204;-44
2023/05/30 09:50:37;;;;;;;13.03;4.87;;;22.00;55.70;;;;;;5062155;28;20197;-44
2023/05/30 09:53:08;;;;;;;15.20;5.50;;;22.00;55.80;;;;;;5060242;28;20206;-44
2023/05/30 09:55:37;;;;;;;15.90;5.20;;;22.00;55.50;;;;;;5062968;28;20771;-43
2023/05/30 09:58:17;;;;;;;15.60;5.37;;;22.00;55.30;;;;;;5052588;28;20777;-44
2023/05/30 10:00:51;;;;;;;12.20;4.93;;;22.10;55.30;;;;;;5062247;28;20595;-43
2023/05/30 10:03:43;;;;;;;15.50;5.00;;;22.10;55.40;;;;;;5052219;28;20194;-44
2023/05/30 10:06:18;;;;;;;12.17;4.27;;;22.10;55.20;;;;;;5046288;28;20199;-44
2023/05/30 10:08:46;;;;;;;10.53;4.63;;;22.10;55.10;;;;;;5048314;28;20201;-44
2023/05/30 10:11:45;;;;;;;10.20;4.50;;;22.10;55.20;;;;;;5046867;28;20277;-43
2023/05/30 10:14:16;;;;;;;19.70;4.93;;;22.10;55.20;;;;;;5048973;28;20217;-43
2023/05/30 10:17:08;;;;;;;22.67;6.50;;;22.10;55.50;;;;;;5043809;28;20221;-44
2023/05/30 10:20:06;;;;;;;16.93;6.07;;;22.10;55.90;;;;;;5036138;28;20202;-44
2023/05/30 10:22:54;;;;;;;17.77;4.63;;;22.20;55.90;;;;;;5047057;28;20204;-44
2023/05/30 10:25:32;;;;;;;11.33;5.40;;;22.20;55.50;;;;;;5034759;28;20225;-44
2023/05/30 10:28:18;;;;;;;18.63;5.00;;;22.10;55.60;;;;;;5047655;28;20202;-43
2023/05/30 10:30:50;;;;;;;16.67;5.43;;;22.10;56.00;;;;;;5037665;28;20192;-43
2023/05/30 10:33:27;;;;;;;9.97;4.40;;;22.10;56.60;;;;;;5026213;28;20197;-43
2023/05/30 10:36:18;;;;;;;14.63;4.73;;;22.10;56.50;;;;;;5041231;28;20210;-44
2023/05/30 10:39:19;;;;;;;11.07;4.63;;;22.10;56.30;;;;;;5042244;28;20290;-43
2023/05/30 10:42:05;;;;;;;11.60;4.73;;;22.20;56.20;;;;;;5062789;28;20206;-44
2023/05/30 10:45:16;;;;;;;9.20;4.40;;;22.20;56.20;;;;;;5062729;28;20198;-44
2023/05/30 10:48:08;;;;;;;10.63;4.53;;;22.20;56.60;;;;;;5055840;28;20202;-44
2023/05/30 10:50:43;;;;;;;11.27;4.87;;;22.20;56.30;;;;;;5060404;28;20673;-44
2023/05/30 10:53:22;;;;;;;13.37;3.97;;;22.10;56.10;;;;;;5055491;28;20248;-45
2023/05/30 10:55:55;;;;;;;6.10;4.00;;;22.20;56.30;;;;;;5056276;28;20186;-43
2023/05/30 10:58:42;;;;;;;9.63;4.17;;;22.20;56.30;;;;;;5056913;28;20202;-43
2023/05/30 11:01:34;;;;;;;7.93;3.97;;;22.20;56.40;;;;;;5052877;28;20198;-43
2023/05/30 11:04:09;;;;;;;8.40;4.07;;;22.10;56.10;;;;;;5062385;28;20205;-45
2023/05/30 11:06:46;;;;;;;7.53;3.37;;;22.20;56.30;;;;;;5048088;28;20209;-45
2023/05/30 11:09:17;;;;;;;6.63;3.87;;;22.20;56.30;;;;;;5058956;28;20210;-45
2023/05/30 11:11:57;;;;;;;8.03;3.60;;;22.20;56.50;;;;;;5034016;28;20200;-44
2023/05/30 11:14:39;;;;;;;6.27;3.60;;;22.20;56.50;;;;;;5045972;28;20185;-44
2023/05/30 11:17:12;;;;;;;6.07;3.53;;;22.20;56.50;;;;;;5055151;28;20301;-44
2023/05/30 11:19:51;;;;;;;9.87;4.20;;;22.20;57.50;;;;;;5065467;28;20185;-44
2023/05/30 11:22:22;;;;;;;17.30;4.63;;;22.20;57.00;;;;;;5057347;28;20225;-45
2023/05/30 11:25:23;;;;;;;16.47;4.17;;;22.20;57.20;;;;;;5060894;28;20832;-44
2023/05/30 11:28:07;;;;;;;15.37;3.90;;;22.20;57.50;;;;;;5055885;28;20354;-43
2023/05/30 11:30:37;;;;;;;22.43;4.90;;;22.20;57.80;;;;;;5064432;28;20194;-44
2023/05/30 11:33:10;;;;;;;16.63;4.60;;;22.30;58.90;;;;;;5070808;28;20201;-44
2023/05/30 11:35:49;;;;;;;18.33;4.17;;;22.20;59.20;;;;;;5033051;28;20229;-43
2023/05/30 11:38:24;;;;;;;13.57;3.53;;;22.30;58.90;;;;;;5048415;28;20799;-43
2023/05/30 11:40:54;;;;;;;8.27;3.70;;;22.30;59.20;;;;;;5059046;28;20228;-43
2023/05/30 11:43:28;;;;;;;7.90;3.57;;;22.40;59.60;;;;;;5051436;28;20193;-43
2023/05/30 11:46:00;;;;;;;9.97;4.07;;;22.40;59.70;;;;;;5067505;28;20213;-44
2023/05/30 11:48:43;;;;;;;15.43;3.47;;;22.50;59.90;;;;;;5072643;28;20231;-44
2023/05/30 11:51:13;;;;;;;11.23;3.70;;;22.50;60.00;;;;;;5065289;28;20209;-43
2023/05/30 11:53:43;;;;;;;5.10;3.07;;;22.50;60.20;;;;;;5067885;28;20553;-44
2023/05/30 11:56:16;;;;;;;12.13;3.93;;;22.50;60.50;;;;;;5056553;28;20575;-44
2023/05/30 11:58:45;;;;;;;10.43;3.73;;;22.60;60.20;;;;;;5064011;28;20683;-43
2023/05/30 12:01:17;;;;;;;10.67;3.60;;;22.60;60.50;;;;;;5057844;28;20198;-43
2023/05/30 12:03:47;;;;;;;6.10;3.60;;;22.70;60.50;;;;;;5065680;28;20658;-44
2023/05/30 12:06:17;;;;;;;6.17;3.20;;;22.70;60.80;;;;;;5057457;28;20217;-43
2023/05/30 12:08:48;;;;;;;5.17;2.90;;;22.80;61.10;;;;;;5047151;28;20205;-44
2023/05/30 12:11:19;;;;;;;7.10;3.47;;;22.80;60.80;;;;;;5064097;28;20198;-44
2023/05/30 12:13:55;;;;;;;5.43;3.07;;;22.80;60.90;;;;;;5060600;28;20221;-44
2023/05/30 12:16:26;;;;;;;7.87;2.90;;;22.90;60.80;;;;;;5044034;28;20202;-43
2023/05/30 12:18:58;;;;;;;9.53;2.73;;;22.90;60.80;;;;;;5061737;28;20190;-44
2023/05/30 12:21:27;;;;;;;3.63;2.60;;;22.90;61.20;;;;;;5067982;28;20209;-44
2023/05/30 12:24:11;;;;;;;4.53;2.90;;;22.90;60.80;;;;;;5040916;28;20536;-44
2023/05/30 12:26:47;;;;;;;4.13;2.57;;;23.00;60.70;;;;;;5054843;28;20203;-43
2023/05/30 12:29:16;;;;;;;5.40;3.00;;;23.00;60.30;;;;;;5031153;28;20272;-44
2023/05/30 12:31:47;;;;;;;5.70;2.70;;;23.00;60.40;;;;;;5046905;28;20198;-43
2023/05/30 12:34:20;;;;;;;6.10;3.20;;;23.00;60.40;;;;;;5049539;28;20202;-43
2023/05/30 12:36:55;;;;;;;5.90;2.90;;;23.00;61.90;;;;;;5052927;28;20670;-44
2023/05/30 12:39:25;;;;;;;7.03;3.30;;;23.00;62.60;;;;;;5039441;28;20599;-44
2023/05/30 12:42:08;;;;;;;5.87;2.67;;;23.00;62.10;;;;;;5050149;28;20245;-44
2023/05/30 12:44:53;;;;;;;5.17;2.60;;;23.00;62.40;;;;;;5049622;28;20626;-44
2023/05/30 12:47:25;;;;;;;4.60;3.13;;;23.00;61.40;;;;;;5049654;28;20214;-44
2023/05/30 12:49:59;;;;;;;5.77;2.93;;;23.00;61.60;;;;;;5047829;28;20222;-43
2023/05/30 12:52:28;;;;;;;7.83;3.30;;;23.00;61.50;;;;;;5043650;28;20566;-46
2023/05/30 12:55:00;;;;;;;8.90;3.00;;;23.10;61.50;;;;;;5032230;28;20198;-44
2023/05/30 12:57:30;;;;;;;10.20;3.50;;;23.10;61.30;;;;;;5047817;28;20187;-43
2023/05/30 13:00:01;;;;;;;12.87;3.10;;;23.10;61.10;;;;;;5022508;28;20201;-43
2023/05/30 13:02:31;;;;;;;8.97;3.23;;;23.10;61.30;;;;;;5044406;28;20198;-44
2023/05/30 13:05:04;;;;;;;15.33;3.93;;;23.10;61.00;;;;;;5032624;28;20213;-43
2023/05/30 13:07:46;;;;;;;10.53;3.60;;;23.10;61.10;;;;;;5043071;28;20948;-43
2023/05/30 13:10:15;;;;;;;9.10;3.67;;;23.10;60.40;;;;;;5039483;28;20322;-44
2023/05/30 13:12:42;;;;;;;10.23;3.67;;;23.10;60.30;;;;;;5050029;28;20194;-45
2023/05/30 13:15:10;;;;;;;7.03;3.60;;;23.10;60.20;;;;;;5035485;28;20639;-45
2023/05/30 13:17:40;;;;;;;7.87;3.57;;;23.10;60.70;;;;;;5045820;28;20213;-45
2023/05/30 13:20:08;;;;;;;12.40;3.97;;;23.10;60.70;;;;;;5048154;28;20194;-44